Terminal Aerodrome Forecast
Issued by NWS

Home | Current Version | Previous Version | Text Only | Print | Product List | Glossary On
Versions: 1 2 3 4 5 6 7 8 9 10 11 12 13
000
FTUS45 KGJT 052352
TAFRIL
TAF
KRIL 052352Z 0600/0624 30005KT P6SM SCT120 BKN250
     FM060100 15005KT P6SM SCT120 BKN250
     FM061200 VRB03KT P6SM SCT120 BKN200
     FM061900 16005KT P6SM VCSH SCT100 BKN200
     FM062300 23012G20KT P6SM VCSH SCT080 OVC150=

USA.gov is the U.S. government's official web portal to all federal, state and local government web resources and services.